Time;durP1;ratioP1;P1;durP2;ratioP2;P2;SDS_P1;SDS_P2;PMS_P1;PMS_P2;Temp;Humidity;BMP_temperature;BMP_pressure;BME280_temperature;BME280_humidity;BME280_pressure;Samples;Min_cycle;Max_cycle;Signal;HPM_P1;HPM_P2
2023/11/08 00:00:48;;;;;;;16.42;15.52;;;;;;;;;;5065982;28;20033;-70
2023/11/08 00:03:15;;;;;;;17.85;16.85;;;;;;;;;;5068328;28;20026;-61
2023/11/08 00:05:41;;;;;;;19.02;17.50;;;;;;;;;;5065762;28;20059;-70
2023/11/08 00:08:07;;;;;;;17.58;16.58;;;;;;;;;;5068900;28;20060;-71
2023/11/08 00:10:33;;;;;;;17.35;16.38;;;;;;;;;;5065591;28;20067;-70
2023/11/08 00:12:59;;;;;;;18.30;17.30;;;;;;;;;;5063824;28;20043;-62
2023/11/08 00:15:24;;;;;;;18.45;17.45;;;;;;;;;;5065579;28;20040;-69
2023/11/08 00:17:50;;;;;;;17.75;16.67;;;;;;;;;;5063675;28;20032;-70
2023/11/08 00:20:15;;;;;;;18.85;17.75;;;;;;;;;;5065880;28;20064;-62
2023/11/08 00:22:44;;;;;;;18.30;17.30;;;;;;;;;;5065008;28;20082;-63
2023/11/08 00:25:10;;;;;;;17.83;16.83;;;;;;;;;;5069088;28;20068;-62
2023/11/08 00:27:36;;;;;;;17.90;16.90;;;;;;;;;;5068717;28;20039;-62
2023/11/08 00:30:03;;;;;;;18.55;17.45;;;;;;;;;;5065434;28;20085;-62
2023/11/08 00:32:28;;;;;;;18.98;17.83;;;;;;;;;;5068479;28;20081;-62
2023/11/08 00:34:54;;;;;;;18.15;17.15;;;;;;;;;;5062694;28;20059;-62
2023/11/08 00:37:20;;;;;;;19.63;18.42;;;;;;;;;;5061502;28;20028;-62
2023/11/08 00:39:47;;;;;;;18.70;17.63;;;;;;;;;;5067031;28;20102;-62
2023/11/08 00:42:13;;;;;;;19.30;18.17;;;;;;;;;;5067654;28;20123;-62
2023/11/08 00:44:39;;;;;;;18.08;17.08;;;;;;;;;;5070729;28;20032;-70
2023/11/08 00:47:04;;;;;;;23.83;19.27;;;;;;;;;;5067568;28;20036;-62
2023/11/08 00:49:29;;;;;;;18.73;17.63;;;;;;;;;;5067033;28;20225;-70
2023/11/08 00:51:55;;;;;;;17.50;16.50;;;;;;;;;;5063852;28;20213;-63
2023/11/08 00:54:21;;;;;;;18.52;17.52;;;;;;;;;;5068997;28;20039;-70
2023/11/08 00:56:46;;;;;;;18.17;16.77;;;;;;;;;;5066295;28;20108;-70
2023/11/08 00:59:11;;;;;;;17.55;16.55;;;;;;;;;;5062838;28;20135;-70
2023/11/08 01:01:37;;;;;;;18.98;17.88;;;;;;;;;;5065881;28;20085;-71
2023/11/08 01:04:06;;;;;;;18.33;17.33;;;;;;;;;;5068268;28;20020;-70
2023/11/08 01:06:32;;;;;;;19.50;18.27;;;;;;;;;;5065644;28;20029;-69
2023/11/08 01:08:58;;;;;;;18.45;17.42;;;;;;;;;;5064012;28;20072;-70
2023/11/08 01:11:24;;;;;;;17.50;16.40;;;;;;;;;;5064384;28;20029;-62
2023/11/08 01:13:50;;;;;;;17.90;16.90;;;;;;;;;;5064798;28;20477;-70
2023/11/08 01:16:15;;;;;;;19.60;17.58;;;;;;;;;;5067508;28;20113;-62
2023/11/08 01:18:41;;;;;;;18.50;17.30;;;;;;;;;;5066973;28;20040;-62
2023/11/08 01:21:06;;;;;;;16.85;15.95;;;;;;;;;;5067464;28;20530;-70
2023/11/08 01:23:31;;;;;;;18.92;17.92;;;;;;;;;;5064208;28;20054;-70
2023/11/08 01:25:57;;;;;;;16.90;16.00;;;;;;;;;;5063659;28;20040;-62
2023/11/08 01:28:22;;;;;;;19.55;18.45;;;;;;;;;;5063829;28;20132;-71
2023/11/08 01:30:48;;;;;;;17.35;16.35;;;;;;;;;;5067618;28;20377;-62
2023/11/08 01:33:14;;;;;;;17.98;16.98;;;;;;;;;;5064656;28;20159;-62
2023/11/08 01:35:39;;;;;;;18.05;17.05;;;;;;;;;;5052101;28;20111;-62
2023/11/08 01:38:04;;;;;;;18.75;17.20;;;;;;;;;;5065584;28;20079;-62
2023/11/08 01:40:30;;;;;;;18.95;17.75;;;;;;;;;;5064670;28;20033;-62
2023/11/08 01:42:55;;;;;;;18.55;17.55;;;;;;;;;;5062369;28;20401;-63
2023/11/08 01:45:20;;;;;;;17.80;16.65;;;;;;;;;;5065634;28;20700;-70
2023/11/08 01:47:48;;;;;;;17.83;16.83;;;;;;;;;;5064645;28;20048;-62
2023/11/08 01:50:15;;;;;;;18.23;16.92;;;;;;;;;;5061750;28;20028;-62
2023/11/08 01:52:41;;;;;;;18.45;17.25;;;;;;;;;;5064122;28;20095;-70
2023/11/08 01:55:08;;;;;;;18.17;17.17;;;;;;;;;;5064743;28;20067;-62
2023/11/08 01:57:33;;;;;;;16.58;15.68;;;;;;;;;;5065037;28;20469;-62
2023/11/08 01:59:59;;;;;;;19.02;17.45;;;;;;;;;;5062785;28;20036;-62
2023/11/08 02:02:25;;;;;;;17.92;16.92;;;;;;;;;;5066778;28;20287;-62
2023/11/08 02:04:52;;;;;;;16.88;15.98;;;;;;;;;;5069006;28;20036;-69
2023/11/08 02:07:17;;;;;;;17.88;16.88;;;;;;;;;;5066910;28;20040;-70
2023/11/08 02:09:43;;;;;;;18.58;17.58;;;;;;;;;;5065121;28;20047;-69
2023/11/08 02:12:09;;;;;;;16.88;15.98;;;;;;;;;;5065499;28;20032;-70
2023/11/08 02:14:34;;;;;;;17.90;16.85;;;;;;;;;;5067190;28;20072;-63
2023/11/08 02:17:00;;;;;;;17.85;16.85;;;;;;;;;;5066662;28;20040;-62
2023/11/08 02:19:26;;;;;;;17.65;16.65;;;;;;;;;;5070231;28;20623;-63
2023/11/08 02:21:52;;;;;;;18.35;16.63;;;;;;;;;;5066812;28;20115;-63
2023/11/08 02:24:22;;;;;;;17.35;16.35;;;;;;;;;;5067310;28;20359;-70
2023/11/08 02:26:48;;;;;;;17.73;16.73;;;;;;;;;;5066481;28;20056;-63
2023/11/08 02:29:17;;;;;;;16.85;15.95;;;;;;;;;;5065330;28;20078;-63
2023/11/08 02:31:50;;;;;;;18.13;17.08;;;;;;;;;;5053121;28;20040;-62
2023/11/08 02:34:18;;;;;;;19.05;18.05;;;;;;;;;;5066989;28;20120;-70
2023/11/08 02:36:44;;;;;;;17.95;16.95;;;;;;;;;;5066538;28;20051;-71
2023/11/08 02:39:09;;;;;;;19.02;18.00;;;;;;;;;;5064931;28;20032;-62
2023/11/08 02:41:35;;;;;;;17.52;16.52;;;;;;;;;;5070358;28;20105;-62
2023/11/08 02:44:01;;;;;;;19.17;18.05;;;;;;;;;;5066241;28;20476;-62
2023/11/08 02:46:27;;;;;;;18.67;17.52;;;;;;;;;;5064400;28;20036;-62
2023/11/08 02:48:56;;;;;;;17.95;16.85;;;;;;;;;;5065207;28;20032;-70
2023/11/08 02:51:23;;;;;;;18.77;17.70;;;;;;;;;;5064084;28;20032;-70
2023/11/08 02:53:48;;;;;;;18.00;16.88;;;;;;;;;;5068068;28;20037;-62
2023/11/08 02:56:15;;;;;;;17.25;16.25;;;;;;;;;;5064832;28;20112;-70
2023/11/08 02:58:41;;;;;;;17.85;16.85;;;;;;;;;;5064863;28;20029;-61
2023/11/08 03:01:07;;;;;;;22.08;16.80;;;;;;;;;;5065298;28;20052;-62
2023/11/08 03:03:32;;;;;;;18.42;17.23;;;;;;;;;;5067345;28;20035;-62
2023/11/08 03:05:57;;;;;;;17.70;16.50;;;;;;;;;;5063993;28;20036;-62
2023/11/08 03:08:23;;;;;;;17.58;16.58;;;;;;;;;;5066146;28;20029;-62
2023/11/08 03:10:49;;;;;;;17.65;16.65;;;;;;;;;;5067637;28;20461;-62
2023/11/08 03:13:15;;;;;;;17.60;16.60;;;;;;;;;;5066573;28;20036;-71
2023/11/08 03:15:40;;;;;;;17.10;16.10;;;;;;;;;;5067828;28;20087;-62
2023/11/08 03:18:06;;;;;;;17.10;16.20;;;;;;;;;;5063579;28;20033;-71
2023/11/08 03:20:32;;;;;;;16.85;15.90;;;;;;;;;;5069911;28;20132;-70
2023/11/08 03:22:58;;;;;;;16.67;15.77;;;;;;;;;;5064265;28;20413;-70
2023/11/08 03:25:23;;;;;;;17.15;16.23;;;;;;;;;;5063561;28;20454;-62
2023/11/08 03:27:49;;;;;;;17.10;16.10;;;;;;;;;;5066737;28;20098;-61
2023/11/08 03:30:15;;;;;;;28.98;16.58;;;;;;;;;;5062399;28;20041;-62
2023/11/08 03:32:42;;;;;;;17.40;16.40;;;;;;;;;;5064358;28;20036;-61
2023/11/08 03:35:08;;;;;;;18.20;17.10;;;;;;;;;;5063865;28;20025;-70
2023/11/08 03:37:43;;;;;;;17.85;16.85;;;;;;;;;;5066257;28;20032;-62
2023/11/08 03:40:11;;;;;;;17.73;16.73;;;;;;;;;;5066897;28;20032;-61
2023/11/08 03:42:39;;;;;;;18.60;17.60;;;;;;;;;;5066042;28;20092;-62
2023/11/08 03:45:05;;;;;;;18.08;17.08;;;;;;;;;;5064935;28;20931;-62
2023/11/08 03:47:31;;;;;;;17.67;16.67;;;;;;;;;;5066197;28;20032;-71
2023/11/08 03:49:57;;;;;;;16.83;15.90;;;;;;;;;;5063867;28;20027;-70
2023/11/08 03:52:26;;;;;;;18.17;16.98;;;;;;;;;;5063970;28;20037;-70
2023/11/08 03:54:52;;;;;;;16.63;15.73;;;;;;;;;;5067981;28;20122;-70
2023/11/08 03:57:19;;;;;;;17.85;16.85;;;;;;;;;;5063404;28;20127;-70
2023/11/08 03:59:45;;;;;;;19.48;18.05;;;;;;;;;;5066495;28;20032;-69
2023/11/08 04:02:11;;;;;;;17.45;16.35;;;;;;;;;;5063789;28;20024;-70
2023/11/08 04:04:36;;;;;;;17.10;16.15;;;;;;;;;;5066796;28;20357;-70
2023/11/08 04:07:02;;;;;;;16.15;15.18;;;;;;;;;;5066391;28;20028;-69
2023/11/08 04:09:27;;;;;;;17.02;16.08;;;;;;;;;;5062626;28;20711;-61
2023/11/08 04:11:52;;;;;;;16.75;15.85;;;;;;;;;;5066757;28;20078;-69
2023/11/08 04:14:18;;;;;;;17.55;16.55;;;;;;;;;;5061260;28;20036;-61
2023/11/08 04:16:43;;;;;;;26.45;17.52;;;;;;;;;;5065136;28;20032;-62
2023/11/08 04:19:08;;;;;;;17.02;16.10;;;;;;;;;;5066465;28;20064;-61
2023/11/08 04:21:34;;;;;;;17.75;16.75;;;;;;;;;;5062276;28;20131;-70
2023/11/08 04:23:59;;;;;;;17.42;16.48;;;;;;;;;;5065545;28;20028;-70
2023/11/08 04:26:25;;;;;;;18.05;17.05;;;;;;;;;;5060302;28;20054;-70
2023/11/08 04:28:51;;;;;;;16.55;15.65;;;;;;;;;;5063788;28;20055;-62
2023/11/08 04:31:17;;;;;;;19.15;17.77;;;;;;;;;;5062169;28;20052;-71
2023/11/08 04:33:43;;;;;;;18.02;16.65;;;;;;;;;;5063706;28;20038;-62
2023/11/08 04:36:09;;;;;;;19.00;17.90;;;;;;;;;;5063109;28;20035;-71
2023/11/08 04:38:35;;;;;;;18.38;17.38;;;;;;;;;;5064627;28;20056;-62
2023/11/08 04:41:01;;;;;;;18.95;17.77;;;;;;;;;;5062745;28;20028;-62
2023/11/08 04:43:29;;;;;;;17.92;16.92;;;;;;;;;;5065089;28;20067;-70
2023/11/08 04:45:54;;;;;;;17.20;16.23;;;;;;;;;;5066221;28;20028;-70
2023/11/08 04:48:19;;;;;;;17.67;16.67;;;;;;;;;;5063921;28;20044;-70
2023/11/08 04:50:45;;;;;;;16.98;16.08;;;;;;;;;;5063144;28;20032;-70
2023/11/08 04:53:11;;;;;;;18.83;17.80;;;;;;;;;;5063951;28;20036;-62
2023/11/08 04:55:37;;;;;;;16.65;15.65;;;;;;;;;;5068409;28;20088;-62
2023/11/08 04:58:03;;;;;;;18.52;17.48;;;;;;;;;;5065134;28;20444;-62
2023/11/08 05:00:28;;;;;;;18.80;17.65;;;;;;;;;;5065106;28;20047;-70
2023/11/08 05:02:54;;;;;;;18.00;17.00;;;;;;;;;;5066107;28;20036;-70
2023/11/08 05:05:19;;;;;;;17.75;16.75;;;;;;;;;;5066396;28;20020;-70
2023/11/08 05:07:46;;;;;;;18.38;17.38;;;;;;;;;;5062773;28;20040;-70
2023/11/08 05:10:13;;;;;;;18.00;17.00;;;;;;;;;;5064721;28;20412;-62
2023/11/08 05:12:38;;;;;;;18.52;17.52;;;;;;;;;;5068640;28;20033;-62
2023/11/08 05:15:08;;;;;;;19.52;18.42;;;;;;;;;;5068066;28;20074;-61
2023/11/08 05:17:35;;;;;;;17.50;16.50;;;;;;;;;;5062762;28;20045;-70
2023/11/08 05:20:01;;;;;;;19.38;18.33;;;;;;;;;;5066154;28;20119;-70
2023/11/08 05:22:26;;;;;;;18.08;17.08;;;;;;;;;;5064684;28;20116;-62
2023/11/08 05:24:51;;;;;;;18.70;17.58;;;;;;;;;;5063154;28;20028;-70
2023/11/08 05:27:18;;;;;;;19.85;18.70;;;;;;;;;;5066237;28;20036;-70
2023/11/08 05:29:44;;;;;;;19.48;18.40;;;;;;;;;;5062936;28;20036;-62
2023/11/08 05:32:09;;;;;;;18.45;17.35;;;;;;;;;;5066609;28;20045;-61
2023/11/08 05:34:34;;;;;;;20.38;19.27;;;;;;;;;;5066493;28;20032;-61
2023/11/08 05:37:00;;;;;;;19.20;18.13;;;;;;;;;;5071062;28;20101;-69
2023/11/08 05:39:27;;;;;;;20.70;19.25;;;;;;;;;;5065016;28;20031;-69
2023/11/08 05:41:53;;;;;;;20.73;19.58;;;;;;;;;;5066731;28;20470;-62
2023/11/08 05:44:19;;;;;;;20.00;18.90;;;;;;;;;;5066229;28;20051;-62
2023/11/08 05:46:45;;;;;;;19.10;18.10;;;;;;;;;;5065125;28;20041;-62
2023/11/08 05:49:10;;;;;;;19.10;18.00;;;;;;;;;;5050483;28;20446;-61
2023/11/08 05:51:37;;;;;;;19.58;18.27;;;;;;;;;;5063960;28;20040;-64
2023/11/08 05:54:03;;;;;;;18.92;17.67;;;;;;;;;;5066775;28;20035;-70
2023/11/08 05:56:29;;;;;;;19.35;18.15;;;;;;;;;;5067319;28;20116;-70
2023/11/08 05:58:55;;;;;;;20.05;18.85;;;;;;;;;;5069018;28;20123;-61
2023/11/08 06:01:20;;;;;;;19.20;17.98;;;;;;;;;;5065853;28;20036;-61
2023/11/08 06:03:46;;;;;;;19.13;18.05;;;;;;;;;;5066047;28;20048;-69
2023/11/08 06:06:11;;;;;;;18.73;17.73;;;;;;;;;;5068005;28;20417;-69
2023/11/08 06:08:37;;;;;;;21.13;19.40;;;;;;;;;;5066766;28;20556;-69
2023/11/08 06:11:06;;;;;;;19.48;18.38;;;;;;;;;;5064161;28;20451;-70
2023/11/08 06:13:35;;;;;;;19.08;18.08;;;;;;;;;;5066256;28;20040;-69
2023/11/08 06:16:00;;;;;;;20.50;19.17;;;;;;;;;;5068059;28;20040;-60
2023/11/08 06:18:26;;;;;;;19.92;18.50;;;;;;;;;;5069359;28;21115;-61
2023/11/08 06:20:55;;;;;;;20.30;19.20;;;;;;;;;;5066424;28;20068;-70
2023/11/08 06:23:20;;;;;;;21.02;19.50;;;;;;;;;;5066652;28;20161;-60
2023/11/08 06:25:45;;;;;;;19.00;17.90;;;;;;;;;;5068789;28;20024;-67
2023/11/08 06:28:11;;;;;;;19.35;18.15;;;;;;;;;;5069408;28;20120;-69
2023/11/08 06:30:36;;;;;;;21.60;19.80;;;;;;;;;;5067237;28;20048;-61
2023/11/08 06:33:02;;;;;;;19.02;17.98;;;;;;;;;;5064879;28;20093;-69
2023/11/08 06:35:28;;;;;;;18.92;17.92;;;;;;;;;;5068578;28;20044;-69
2023/11/08 06:37:53;;;;;;;19.10;18.00;;;;;;;;;;5070045;28;20050;-61
2023/11/08 06:40:19;;;;;;;21.38;19.63;;;;;;;;;;5068327;28;20115;-61
2023/11/08 06:42:44;;;;;;;18.83;17.83;;;;;;;;;;5066826;28;20119;-61
2023/11/08 06:45:10;;;;;;;19.25;18.15;;;;;;;;;;5069947;28;20090;-69
2023/11/08 06:47:35;;;;;;;19.70;18.20;;;;;;;;;;5066671;28;20031;-61
2023/11/08 06:50:02;;;;;;;18.77;17.77;;;;;;;;;;5067366;28;20024;-61
2023/11/08 06:52:27;;;;;;;20.60;19.50;;;;;;;;;;5065114;28;20497;-61
2023/11/08 06:54:53;;;;;;;17.77;16.77;;;;;;;;;;5066335;28;20147;-61
2023/11/08 06:57:18;;;;;;;18.75;17.73;;;;;;;;;;5068120;28;20039;-60
2023/11/08 06:59:44;;;;;;;30.40;19.10;;;;;;;;;;5066523;28;20376;-69
2023/11/08 07:02:10;;;;;;;20.90;19.70;;;;;;;;;;5064154;28;20516;-68
2023/11/08 07:04:35;;;;;;;18.42;17.42;;;;;;;;;;5064418;28;20028;-60
2023/11/08 07:07:04;;;;;;;19.50;18.17;;;;;;;;;;5068869;28;20051;-61
2023/11/08 07:09:30;;;;;;;21.02;19.65;;;;;;;;;;5066784;28;20381;-61
2023/11/08 07:11:57;;;;;;;19.23;18.15;;;;;;;;;;5066966;28;20705;-68
2023/11/08 07:14:23;;;;;;;20.38;19.27;;;;;;;;;;5068590;28;20040;-67
2023/11/08 07:16:48;;;;;;;18.88;17.85;;;;;;;;;;5064935;28;20113;-68
2023/11/08 07:19:14;;;;;;;18.92;17.92;;;;;;;;;;5065415;28;20084;-69
2023/11/08 07:21:42;;;;;;;19.02;18.02;;;;;;;;;;5065917;28;20089;-69
2023/11/08 07:24:08;;;;;;;19.35;18.02;;;;;;;;;;5065408;28;20039;-71
2023/11/08 07:26:34;;;;;;;18.98;17.95;;;;;;;;;;5066542;28;20044;-69
2023/11/08 07:29:03;;;;;;;18.90;17.88;;;;;;;;;;5066030;28;20028;-60
2023/11/08 07:31:30;;;;;;;18.17;17.17;;;;;;;;;;5065523;28;20039;-60
2023/11/08 07:33:55;;;;;;;20.23;19.05;;;;;;;;;;5066522;28;20122;-61
2023/11/08 07:36:23;;;;;;;18.70;17.67;;;;;;;;;;5067604;28;20047;-61
2023/11/08 07:38:48;;;;;;;18.73;17.73;;;;;;;;;;5061969;28;20032;-59
2023/11/08 07:41:14;;;;;;;18.83;17.83;;;;;;;;;;5068512;28;20032;-60
2023/11/08 07:43:40;;;;;;;21.10;19.95;;;;;;;;;;5064422;28;20406;-61
2023/11/08 07:46:05;;;;;;;20.40;19.10;;;;;;;;;;5066441;28;20423;-61
2023/11/08 07:48:30;;;;;;;19.65;18.45;;;;;;;;;;5065029;28;20059;-62
2023/11/08 07:50:56;;;;;;;20.10;18.30;;;;;;;;;;5057854;28;20037;-62
2023/11/08 07:53:21;;;;;;;19.13;18.02;;;;;;;;;;5065275;28;20036;-62
2023/11/08 07:55:49;;;;;;;19.50;18.40;;;;;;;;;;5063519;28;20024;-62
2023/11/08 07:58:17;;;;;;;19.02;18.02;;;;;;;;;;5063744;28;20111;-63
2023/11/08 08:00:46;;;;;;;19.60;18.42;;;;;;;;;;5061078;28;20028;-63
2023/11/08 08:03:16;;;;;;;17.73;16.63;;;;;;;;;;5064525;28;20067;-63
2023/11/08 08:05:42;;;;;;;18.88;17.83;;;;;;;;;;5063399;28;20046;-63
2023/11/08 08:08:09;;;;;;;19.27;18.17;;;;;;;;;;5065418;28;20040;-64
2023/11/08 08:10:35;;;;;;;19.73;18.63;;;;;;;;;;5065011;28;20032;-69
2023/11/08 08:13:03;;;;;;;18.73;17.42;;;;;;;;;;5063375;28;20032;-69
2023/11/08 08:15:29;;;;;;;19.42;18.33;;;;;;;;;;5068941;28;20044;-63
2023/11/08 08:17:54;;;;;;;18.35;17.35;;;;;;;;;;5063466;28;20053;-69
2023/11/08 08:20:20;;;;;;;20.48;19.17;;;;;;;;;;5066578;28;20032;-63
2023/11/08 08:22:45;;;;;;;20.20;19.10;;;;;;;;;;5063995;28;20631;-61
2023/11/08 08:25:11;;;;;;;19.67;18.58;;;;;;;;;;5065141;28;20059;-62
2023/11/08 08:27:39;;;;;;;19.67;18.58;;;;;;;;;;5064975;28;20029;-62
2023/11/08 08:30:10;;;;;;;19.73;18.63;;;;;;;;;;5065467;28;20123;-62
2023/11/08 08:32:40;;;;;;;20.75;19.55;;;;;;;;;;5061808;28;20579;-61
2023/11/08 08:35:05;;;;;;;21.17;19.88;;;;;;;;;;5066179;28;20051;-61
2023/11/08 08:37:32;;;;;;;23.00;21.50;;;;;;;;;;5063007;28;20558;-70
2023/11/08 08:39:57;;;;;;;23.38;22.08;;;;;;;;;;5066515;28;20419;-68
2023/11/08 08:42:23;;;;;;;21.60;20.40;;;;;;;;;;5064023;28;20036;-68
2023/11/08 08:44:49;;;;;;;23.70;22.40;;;;;;;;;;5064320;28;20454;-62
2023/11/08 08:47:15;;;;;;;23.27;21.73;;;;;;;;;;5067582;28;20039;-62
2023/11/08 08:49:40;;;;;;;24.05;22.75;;;;;;;;;;5066256;28;20029;-67
2023/11/08 08:52:05;;;;;;;25.45;24.05;;;;;;;;;;5066227;28;20174;-61
2023/11/08 08:54:31;;;;;;;26.77;25.38;;;;;;;;;;5066991;28;20119;-69
2023/11/08 08:56:58;;;;;;;26.55;25.15;;;;;;;;;;5063418;28;20047;-61
2023/11/08 08:59:24;;;;;;;27.13;25.70;;;;;;;;;;5067700;28;20056;-61
2023/11/08 09:01:49;;;;;;;27.55;26.15;;;;;;;;;;5064956;28;20036;-68
2023/11/08 09:04:14;;;;;;;26.77;25.30;;;;;;;;;;5065410;28;20032;-68
2023/11/08 09:06:40;;;;;;;24.42;22.95;;;;;;;;;;5065067;28;20516;-68
2023/11/08 09:09:11;;;;;;;24.15;22.83;;;;;;;;;;5068148;28;20638;-61
2023/11/08 09:11:37;;;;;;;21.45;20.25;;;;;;;;;;5060964;28;20508;-60
2023/11/08 09:14:02;;;;;;;21.52;20.33;;;;;;;;;;5062856;28;20042;-60
2023/11/08 09:16:28;;;;;;;25.70;24.30;;;;;;;;;;5062267;28;20058;-61
2023/11/08 09:18:53;;;;;;;24.55;23.15;;;;;;;;;;5062160;28;20086;-69
2023/11/08 09:21:20;;;;;;;22.45;21.25;;;;;;;;;;5061465;28;20040;-70
2023/11/08 09:23:46;;;;;;;22.00;20.80;;;;;;;;;;5060656;28;20142;-64
2023/11/08 09:26:11;;;;;;;20.13;19.02;;;;;;;;;;5061160;28;20492;-67
2023/11/08 09:28:37;;;;;;;21.95;20.75;;;;;;;;;;5063757;28;20055;-68
2023/11/08 09:31:03;;;;;;;22.67;21.38;;;;;;;;;;5060607;28;20051;-68
2023/11/08 09:33:29;;;;;;;22.02;20.83;;;;;;;;;;5061794;28;20111;-68
2023/11/08 09:35:55;;;;;;;23.10;21.80;;;;;;;;;;5062118;28;20024;-61
2023/11/08 09:38:20;;;;;;;24.10;22.30;;;;;;;;;;5065664;28;20153;-62
2023/11/08 09:40:45;;;;;;;22.48;21.27;;;;;;;;;;5062014;28;20017;-61
2023/11/08 09:43:11;;;;;;;21.85;20.65;;;;;;;;;;5063013;28;20449;-70
2023/11/08 09:45:38;;;;;;;22.73;21.52;;;;;;;;;;5064610;28;20070;-61
2023/11/08 09:48:03;;;;;;;21.35;20.20;;;;;;;;;;5066912;28;20032;-63
2023/11/08 09:50:30;;;;;;;22.08;20.85;;;;;;;;;;5066417;28;20035;-69
2023/11/08 09:52:56;;;;;;;25.05;23.48;;;;;;;;;;5064568;28;20128;-69
2023/11/08 09:55:22;;;;;;;21.00;19.80;;;;;;;;;;5065484;28;20157;-69
2023/11/08 09:57:49;;;;;;;21.10;20.00;;;;;;;;;;5064289;28;20066;-63
2023/11/08 10:00:19;;;;;;;22.05;20.85;;;;;;;;;;5063179;28;20579;-62
2023/11/08 10:02:45;;;;;;;24.33;22.70;;;;;;;;;;5064076;28;20051;-63
2023/11/08 10:05:11;;;;;;;21.02;19.92;;;;;;;;;;5057267;28;20369;-68
2023/11/08 10:07:39;;;;;;;22.33;21.13;;;;;;;;;;5062367;28;20047;-62
2023/11/08 10:10:06;;;;;;;20.42;19.33;;;;;;;;;;5061409;28;20350;-62
2023/11/08 10:12:32;;;;;;;18.85;17.85;;;;;;;;;;5061985;28;20029;-69
2023/11/08 10:15:03;;;;;;;19.23;18.08;;;;;;;;;;5064158;28;20524;-69
2023/11/08 10:17:39;;;;;;;18.35;17.35;;;;;;;;;;5063980;28;20044;-68
2023/11/08 10:20:08;;;;;;;19.48;18.38;;;;;;;;;;5061637;28;20040;-67
2023/11/08 10:22:35;;;;;;;20.40;19.20;;;;;;;;;;5066389;28;20028;-68
2023/11/08 10:25:02;;;;;;;18.02;17.02;;;;;;;;;;5071324;28;20028;-68
2023/11/08 10:27:29;;;;;;;19.85;18.75;;;;;;;;;;5070077;28;20040;-67
2023/11/08 10:30:13;;;;;;;22.23;20.85;;;;;;;;;;5069464;28;20021;-67
2023/11/08 10:32:38;;;;;;;22.33;20.50;;;;;;;;;;5062214;28;20473;-69
2023/11/08 10:35:22;;;;;;;20.25;19.15;;;;;;;;;;5066666;28;20055;-62
2023/11/08 10:37:49;;;;;;;18.67;17.58;;;;;;;;;;5065404;28;20417;-62
2023/11/08 10:40:15;;;;;;;18.80;17.80;;;;;;;;;;5068028;28;20050;-61
2023/11/08 10:42:49;;;;;;;18.55;17.55;;;;;;;;;;5066196;28;20039;-62
2023/11/08 10:45:15;;;;;;;19.67;18.58;;;;;;;;;;5065780;28;20162;-62
2023/11/08 10:47:40;;;;;;;20.48;19.38;;;;;;;;;;5068657;28;20044;-69
2023/11/08 10:50:08;;;;;;;20.35;19.25;;;;;;;;;;5067245;28;20064;-69
2023/11/08 10:52:35;;;;;;;19.45;18.38;;;;;;;;;;5067450;28;20036;-68
2023/11/08 10:55:04;;;;;;;18.75;17.73;;;;;;;;;;5065960;28;20610;-69
2023/11/08 10:57:32;;;;;;;19.23;18.13;;;;;;;;;;5068291;28;20355;-62
2023/11/08 11:00:00;;;;;;;20.23;19.13;;;;;;;;;;5061859;28;20060;-62
2023/11/08 11:02:39;;;;;;;25.75;20.42;;;;;;;;;;5066977;28;20649;-70
2023/11/08 11:05:10;;;;;;;19.55;18.45;;;;;;;;;;5069131;28;20044;-69
2023/11/08 11:07:41;;;;;;;19.65;18.55;;;;;;;;;;5061287;28;20517;-69
2023/11/08 11:10:11;;;;;;;20.92;19.70;;;;;;;;;;5059144;28;20043;-62
2023/11/08 11:12:56;;;;;;;19.83;18.63;;;;;;;;;;5068345;28;20036;-61
2023/11/08 11:15:31;;;;;;;19.88;18.65;;;;;;;;;;5066662;28;20608;-62
2023/11/08 11:17:58;;;;;;;21.50;20.33;;;;;;;;;;5064028;28;20036;-62
2023/11/08 11:20:32;;;;;;;20.10;19.00;;;;;;;;;;5070375;28;20037;-61
2023/11/08 11:22:58;;;;;;;19.98;18.88;;;;;;;;;;5063826;28;21534;-62
2023/11/08 11:25:46;;;;;;;17.50;16.50;;;;;;;;;;5067902;28;20047;-68
2023/11/08 11:28:11;;;;;;;19.15;18.05;;;;;;;;;;5066286;28;20040;-68
2023/11/08 11:30:37;;;;;;;19.42;18.23;;;;;;;;;;5064746;28;20047;-67
2023/11/08 11:33:04;;;;;;;19.80;18.70;;;;;;;;;;5062748;28;20061;-68
2023/11/08 11:35:30;;;;;;;19.55;18.45;;;;;;;;;;5064599;28;20056;-68
2023/11/08 11:38:23;;;;;;;22.33;20.92;;;;;;;;;;5064053;28;20028;-68
2023/11/08 11:41:17;;;;;;;18.60;17.60;;;;;;;;;;5064100;28;20036;-67
2023/11/08 11:43:43;;;;;;;18.88;17.88;;;;;;;;;;5065414;28;20040;-61
2023/11/08 11:46:09;;;;;;;21.55;20.25;;;;;;;;;;5063917;28;20036;-62
2023/11/08 11:48:35;;;;;;;19.25;18.17;;;;;;;;;;5061312;28;20115;-61
2023/11/08 11:51:02;;;;;;;18.45;17.35;;;;;;;;;;5060285;28;20135;-68
2023/11/08 11:53:29;;;;;;;18.75;17.75;;;;;;;;;;5067418;28;20504;-69
2023/11/08 11:56:07;;;;;;;19.42;18.35;;;;;;;;;;5066118;28;20082;-62
2023/11/08 11:58:33;;;;;;;18.20;17.20;;;;;;;;;;5065835;28;20057;-62
2023/11/08 12:00:58;;;;;;;19.58;18.35;;;;;;;;;;5063027;28;20477;-62
2023/11/08 12:03:26;;;;;;;19.38;18.33;;;;;;;;;;5065604;28;20067;-63
2023/11/08 12:05:57;;;;;;;20.25;19.10;;;;;;;;;;5065992;28;20036;-63
2023/11/08 12:08:23;;;;;;;19.58;17.45;;;;;;;;;;5067761;28;20248;-69
2023/11/08 12:10:49;;;;;;;19.13;18.05;;;;;;;;;;5065538;28;20036;-62
2023/11/08 12:13:14;;;;;;;18.05;17.05;;;;;;;;;;5064914;28;20092;-62
2023/11/08 12:15:40;;;;;;;18.58;17.58;;;;;;;;;;5065189;28;20062;-62
2023/11/08 12:18:07;;;;;;;18.75;17.75;;;;;;;;;;5063861;28;20036;-62
2023/11/08 12:20:41;;;;;;;21.30;20.10;;;;;;;;;;5062630;28;20047;-62
2023/11/08 12:23:06;;;;;;;18.40;17.40;;;;;;;;;;5068749;28;20024;-70
2023/11/08 12:25:33;;;;;;;18.80;17.80;;;;;;;;;;5062015;28;20039;-62
2023/11/08 12:27:59;;;;;;;18.35;17.35;;;;;;;;;;5067683;28;20039;-68
2023/11/08 12:30:26;;;;;;;20.73;19.50;;;;;;;;;;5064775;28;20032;-68
2023/11/08 12:32:53;;;;;;;19.90;18.80;;;;;;;;;;5065512;28;20104;-69
2023/11/08 12:35:19;;;;;;;20.65;19.45;;;;;;;;;;5063837;28;20033;-68
2023/11/08 12:37:45;;;;;;;18.35;17.35;;;;;;;;;;5065434;28;20035;-62
2023/11/08 12:40:21;;;;;;;20.83;19.65;;;;;;;;;;5065204;28;20067;-59
2023/11/08 12:42:47;;;;;;;19.08;17.98;;;;;;;;;;5063873;28;20052;-69
2023/11/08 12:45:27;;;;;;;19.63;18.42;;;;;;;;;;5066443;28;20028;-69
2023/11/08 12:48:03;;;;;;;19.65;18.55;;;;;;;;;;5065866;28;20032;-61
2023/11/08 12:50:28;;;;;;;18.48;17.48;;;;;;;;;;5062470;28;20059;-61
2023/11/08 12:52:53;;;;;;;20.05;18.80;;;;;;;;;;5063565;28;20469;-61
2023/11/08 12:55:19;;;;;;;19.58;17.88;;;;;;;;;;5051095;28;20032;-61
2023/11/08 12:57:44;;;;;;;20.15;19.05;;;;;;;;;;5061993;28;20029;-63
2023/11/08 13:00:11;;;;;;;19.02;17.92;;;;;;;;;;5061552;28;20063;-66
2023/11/08 13:02:37;;;;;;;19.98;18.88;;;;;;;;;;5064223;28;20645;-67
2023/11/08 13:05:04;;;;;;;20.88;19.55;;;;;;;;;;5064368;28;20044;-68
2023/11/08 13:07:30;;;;;;;19.30;18.25;;;;;;;;;;5063677;28;20047;-68
2023/11/08 13:09:55;;;;;;;19.98;18.88;;;;;;;;;;5061939;28;20028;-67
2023/11/08 13:12:20;;;;;;;18.95;17.95;;;;;;;;;;5066074;28;20113;-68
2023/11/08 13:14:48;;;;;;;21.02;19.83;;;;;;;;;;5058985;28;20029;-66
2023/11/08 13:17:13;;;;;;;21.33;19.90;;;;;;;;;;5064542;28;20029;-68
2023/11/08 13:19:39;;;;;;;21.33;20.20;;;;;;;;;;5061373;28;20040;-69
2023/11/08 13:22:04;;;;;;;21.20;19.80;;;;;;;;;;5061013;28;20146;-68
2023/11/08 13:24:29;;;;;;;21.52;20.38;;;;;;;;;;5063428;28;20087;-69
2023/11/08 13:26:55;;;;;;;21.77;19.95;;;;;;;;;;5063893;28;20041;-68
2023/11/08 13:29:20;;;;;;;19.83;18.73;;;;;;;;;;5059666;28;20510;-68
2023/11/08 13:31:48;;;;;;;19.60;18.40;;;;;;;;;;5061786;28;20116;-69
2023/11/08 13:34:14;;;;;;;20.65;19.55;;;;;;;;;;5060953;28;20143;-69
2023/11/08 13:36:40;;;;;;;21.25;19.80;;;;;;;;;;5062125;28;20104;-61
2023/11/08 13:39:07;;;;;;;19.90;18.80;;;;;;;;;;5060031;28;20097;-61
2023/11/08 13:41:33;;;;;;;20.85;19.75;;;;;;;;;;5062858;28;20036;-62
2023/11/08 13:43:58;;;;;;;20.58;19.48;;;;;;;;;;5046428;28;20090;-67
2023/11/08 13:46:24;;;;;;;19.98;18.88;;;;;;;;;;5061853;28;20719;-69
2023/11/08 13:48:49;;;;;;;18.50;17.50;;;;;;;;;;5063559;28;20039;-68
2023/11/08 13:51:15;;;;;;;19.63;18.52;;;;;;;;;;5063395;28;20079;-69
2023/11/08 13:53:40;;;;;;;19.92;18.83;;;;;;;;;;5065188;28;20032;-69
2023/11/08 13:56:06;;;;;;;20.95;19.85;;;;;;;;;;5063367;28;21233;-69
2023/11/08 13:58:32;;;;;;;18.83;17.83;;;;;;;;;;5066939;28;20043;-68
2023/11/08 14:01:06;;;;;;;19.58;18.48;;;;;;;;;;5067053;28;20405;-68
2023/11/08 14:03:32;;;;;;;19.20;18.10;;;;;;;;;;5069209;28;20024;-63
2023/11/08 14:05:58;;;;;;;18.60;17.60;;;;;;;;;;5065813;28;20079;-61
2023/11/08 14:08:23;;;;;;;19.02;18.02;;;;;;;;;;5066674;28;20400;-69
2023/11/08 14:10:49;;;;;;;17.85;16.85;;;;;;;;;;5054914;28;20116;-62
2023/11/08 14:13:14;;;;;;;17.98;16.98;;;;;;;;;;5069311;28;20116;-69